Monday, September 24, 2018, 5:22 PM EDT
Back to Local

KFDK, Frederick, Frederick Municipal Airport

Location: Frederick, MD, United States Lat: 39.417
Local Time: 5:22 PM EDT (21:22 GMT) Lon: -77.374
Time Zone: US/Eastern Elev: 301 ft

Show me the last for .
Show Decoded

2018-09-24 16:47 METAR KFDK 242047Z 08006KT 5SM -RA OVC015 18/17 A3037 =
2018-09-24 15:47 METAR KFDK 241947Z 08008KT 7SM OVC018 19/17 A3037 =
2018-09-24 14:47 METAR KFDK 241847Z 08008KT 10SM OVC015 19/17 A3038 =
2018-09-24 13:48 METAR KFDK 241748Z 09008KT 10SM OVC017 19/17 A3039 =
2018-09-24 12:48 METAR KFDK 241648Z 08007KT 10SM OVC019 19/17 A3039 =
2018-09-24 11:48 METAR KFDK 241548Z 09005KT 10SM OVC017 19/17 A3040 =
2018-09-24 10:55 METAR KFDK 241455Z 08004KT 10SM OVC015 18/17 A3040 =
2018-09-24 09:50 METAR KFDK 241350Z 07004KT 5SM BR OVC010 18/17 A3039 =
2018-09-24 08:48 METAR KFDK 241248Z 03005KT 3SM BR OVC006 17/17 A3038 =
2018-09-24 07:48 METAR KFDK 241148Z 02005KT 1 1/2SM -RABR OVC004 17/17 A3036 =
2018-09-24 06:48 METAR KFDK 241048Z 02004KT 2SM -RABR OVC004 17/16 A3035 =
2018-09-23 20:47 METAR KFDK 240047Z 03003KT 5SM RA OVC005 17/17 A3027 =
2018-09-23 19:47 METAR KFDK 232347Z 02005KT 5SM RA OVC005 17/16 A3026 =
2018-09-23 18:47 METAR KFDK 232247Z 02005KT 3SM RA OVC005 17/16 A3026 =
2018-09-23 17:47 METAR KFDK 232147Z 02005KT 4SM RA OVC005 17/16 A3025 =

Support USWX by starting your Amazon purchase here.